Time;durP1;ratioP1;P1;durP2;ratioP2;P2;SDS_P1;SDS_P2;PMS_P1;PMS_P2;Temp;Humidity;BMP_temperature;BMP_pressure;BME280_temperature;BME280_humidity;BME280_pressure;Samples;Min_cycle;Max_cycle;Signal;HPM_P1;HPM_P2
2022/11/04 00:01:04;;;;;;;4.03;1.30;;;;;;;;;;5062689;28;20189;-72
2022/11/04 00:03:29;;;;;;;3.00;1.10;;;;;;;;;;5054150;28;20276;-74
2022/11/04 00:05:54;;;;;;;4.67;1.70;;;;;;;;;;5045550;28;20348;-72
2022/11/04 00:08:22;;;;;;;3.63;1.40;;;;;;;;;;5050713;28;20181;-74
2022/11/04 00:13:31;;;;;;;3.73;1.33;;;;;;;;;;5050205;28;20230;-73
2022/11/04 00:18:43;;;;;;;8.43;1.85;;;;;;;;;;5047539;28;20236;-73
2022/11/04 00:29:20;;;;;;;2.60;1.23;;;;;;;;;;5050710;28;20268;-73
2022/11/04 00:34:29;;;;;;;7.10;1.40;;;;;;;;;;5048949;28;20685;-73
2022/11/04 00:36:54;;;;;;;3.43;1.03;;;;;;;;;;5062397;28;20180;-73
2022/11/04 00:39:19;;;;;;;4.17;1.13;;;;;;;;;;5061767;28;20189;-73
2022/11/04 00:41:45;;;;;;;4.40;1.00;;;;;;;;;;5061176;28;20225;-74
2022/11/04 00:44:10;;;;;;;3.40;1.13;;;;;;;;;;5056280;28;20201;-74
2022/11/04 00:46:35;;;;;;;3.57;1.10;;;;;;;;;;5054395;28;20683;-73
2022/11/04 00:49:00;;;;;;;3.90;1.07;;;;;;;;;;5055501;28;20173;-73
2022/11/04 00:51:25;;;;;;;3.00;1.43;;;;;;;;;;5060861;28;20189;-73
2022/11/04 00:53:51;;;;;;;1.77;0.80;;;;;;;;;;5053861;28;20223;-73
2022/11/04 00:56:16;;;;;;;4.30;1.30;;;;;;;;;;5054329;28;20236;-73
2022/11/04 00:58:41;;;;;;;1.90;1.17;;;;;;;;;;5055420;28;20424;-73
2022/11/04 01:01:11;;;;;;;5.83;1.00;;;;;;;;;;5052566;28;20213;-74
2022/11/04 01:03:36;;;;;;;2.37;0.70;;;;;;;;;;5055308;28;20177;-73
2022/11/04 01:06:02;;;;;;;2.00;0.83;;;;;;;;;;5048684;28;20197;-73
2022/11/04 01:08:27;;;;;;;1.83;0.90;;;;;;;;;;5057924;28;20665;-75
2022/11/04 01:10:53;;;;;;;4.23;0.80;;;;;;;;;;5051408;28;20220;-74
2022/11/04 01:13:18;;;;;;;5.30;0.93;;;;;;;;;;5057653;28;20256;-75
2022/11/04 01:15:43;;;;;;;1.53;1.33;;;;;;;;;;5041598;28;20694;-75
2022/11/04 01:18:08;;;;;;;2.90;1.10;;;;;;;;;;5055133;28;20263;-74
2022/11/04 01:20:33;;;;;;;2.67;1.20;;;;;;;;;;5053371;28;20193;-75
2022/11/04 01:22:59;;;;;;;1.87;1.23;;;;;;;;;;5053528;28;20180;-75
2022/11/04 01:25:24;;;;;;;1.33;0.90;;;;;;;;;;5058839;28;20300;-76
2022/11/04 01:27:49;;;;;;;1.97;0.70;;;;;;;;;;5060900;28;20524;-75
2022/11/04 01:30:15;;;;;;;2.50;0.57;;;;;;;;;;5043920;28;20562;-75
2022/11/04 01:32:40;;;;;;;2.43;0.80;;;;;;;;;;5052941;28;20217;-75
2022/11/04 01:35:06;;;;;;;0.83;0.43;;;;;;;;;;5059126;28;20174;-75
2022/11/04 01:37:31;;;;;;;1.33;0.50;;;;;;;;;;5054253;28;20178;-75
2022/11/04 01:39:56;;;;;;;1.57;0.60;;;;;;;;;;5055878;28;20227;-75
2022/11/04 01:42:22;;;;;;;3.33;0.60;;;;;;;;;;5045447;28;20202;-74
2022/11/04 01:44:48;;;;;;;1.00;0.63;;;;;;;;;;5055244;28;20548;-74
2022/11/04 01:47:25;;;;;;;1.90;0.60;;;;;;;;;;5051516;28;20177;-72
2022/11/04 01:49:59;;;;;;;2.30;0.47;;;;;;;;;;5055340;28;20165;-74
2022/11/04 01:52:29;;;;;;;0.70;0.50;;;;;;;;;;5049526;28;20211;-72
2022/11/04 01:54:56;;;;;;;7.57;0.60;;;;;;;;;;5058885;28;20189;-74
2022/11/04 01:57:26;;;;;;;0.60;0.47;;;;;;;;;;5047214;28;20190;-74
2022/11/04 01:59:51;;;;;;;1.10;0.53;;;;;;;;;;5053938;28;20204;-74
2022/11/04 02:02:16;;;;;;;2.63;0.57;;;;;;;;;;5055299;28;20228;-74
2022/11/04 02:04:42;;;;;;;1.00;0.50;;;;;;;;;;5058556;28;20267;-74
2022/11/04 02:07:09;;;;;;;1.73;0.80;;;;;;;;;;5041121;28;20166;-72
2022/11/04 02:09:34;;;;;;;1.30;0.50;;;;;;;;;;5049106;28;20177;-74
2022/11/04 02:14:44;;;;;;;2.30;0.63;;;;;;;;;;5050118;28;20208;-74
2022/11/04 02:17:18;;;;;;;3.53;0.53;;;;;;;;;;5053198;28;20185;-74
2022/11/04 02:19:54;;;;;;;2.53;0.50;;;;;;;;;;5053604;28;20173;-74
2022/11/04 02:22:19;;;;;;;6.47;0.83;;;;;;;;;;5055595;28;20247;-74
2022/11/04 02:24:44;;;;;;;3.03;0.63;;;;;;;;;;5050900;28;20604;-74
2022/11/04 02:27:39;;;;;;;3.53;1.23;;;;;;;;;;5044920;28;20174;-74
2022/11/04 02:30:06;;;;;;;2.83;0.83;;;;;;;;;;4987190;28;20223;-74
2022/11/04 02:32:38;;;;;;;1.23;0.83;;;;;;;;;;5050608;28;20212;-74
2022/11/04 02:35:03;;;;;;;4.03;0.87;;;;;;;;;;5062161;28;20215;-74
2022/11/04 02:37:41;;;;;;;1.43;1.00;;;;;;;;;;5047877;28;20571;-74
2022/11/04 02:40:26;;;;;;;1.00;0.63;;;;;;;;;;5042137;28;20174;-74
2022/11/04 02:42:54;;;;;;;3.53;0.93;;;;;;;;;;5051074;28;20177;-73
2022/11/04 02:45:32;;;;;;;0.80;0.53;;;;;;;;;;5055233;28;20194;-73
2022/11/04 02:48:01;;;;;;;1.10;1.00;;;;;;;;;;5052066;28;20612;-73
2022/11/04 02:50:38;;;;;;;2.27;1.40;;;;;;;;;;5056293;28;20172;-74
2022/11/04 02:53:05;;;;;;;1.40;1.20;;;;;;;;;;5046009;28;20188;-75
2022/11/04 02:55:34;;;;;;;2.77;1.73;;;;;;;;;;5052231;28;20176;-73
2022/11/04 02:58:01;;;;;;;2.03;1.70;;;;;;;;;;5050368;28;20260;-73
2022/11/04 03:00:27;;;;;;;2.20;1.93;;;;;;;;;;5041473;28;20175;-73
2022/11/04 03:02:56;;;;;;;2.30;1.73;;;;;;;;;;5065422;28;20706;-73
2022/11/04 03:05:24;;;;;;;3.87;2.90;;;;;;;;;;5049357;28;20194;-74
2022/11/04 03:07:50;;;;;;;3.17;2.10;;;;;;;;;;5064584;28;20219;-73
2022/11/04 03:10:20;;;;;;;5.87;2.10;;;;;;;;;;5046938;28;20666;-73
2022/11/04 03:12:48;;;;;;;3.03;2.30;;;;;;;;;;5044476;28;20239;-73
2022/11/04 03:15:18;;;;;;;3.70;2.13;;;;;;;;;;5051535;28;20174;-73
2022/11/04 03:17:53;;;;;;;2.67;1.80;;;;;;;;;;5045611;28;20180;-73
2022/11/04 03:20:24;;;;;;;2.70;2.00;;;;;;;;;;5052864;28;20256;-73
2022/11/04 03:22:54;;;;;;;4.27;2.13;;;;;;;;;;5043674;28;20549;-73
2022/11/04 03:25:20;;;;;;;1.87;1.50;;;;;;;;;;5057681;28;20197;-73
2022/11/04 03:27:52;;;;;;;6.73;2.00;;;;;;;;;;5065360;28;20637;-73
2022/11/04 03:30:19;;;;;;;2.20;1.77;;;;;;;;;;5053994;28;20239;-73
2022/11/04 03:33:03;;;;;;;5.90;2.87;;;;;;;;;;5050346;28;20256;-73
2022/11/04 03:35:28;;;;;;;2.40;2.00;;;;;;;;;;5070771;28;20216;-74
2022/11/04 03:37:54;;;;;;;2.60;1.80;;;;;;;;;;5046676;28;20752;-73
2022/11/04 03:40:19;;;;;;;3.03;2.23;;;;;;;;;;5046308;28;20174;-73
2022/11/04 03:42:58;;;;;;;2.63;1.87;;;;;;;;;;5063084;28;20177;-71
2022/11/04 03:45:24;;;;;;;3.43;2.37;;;;;;;;;;5054191;28;20574;-73
2022/11/04 03:47:50;;;;;;;3.93;2.63;;;;;;;;;;5044482;28;20174;-73
2022/11/04 03:50:28;;;;;;;2.60;1.90;;;;;;;;;;5049076;28;20268;-74
2022/11/04 03:52:54;;;;;;;5.00;2.17;;;;;;;;;;5045926;28;20189;-73
2022/11/04 03:55:20;;;;;;;2.70;2.10;;;;;;;;;;5046001;28;20184;-73
2022/11/04 03:57:53;;;;;;;2.97;2.20;;;;;;;;;;5049757;28;20209;-73
2022/11/04 04:00:19;;;;;;;4.47;2.70;;;;;;;;;;5053672;28;20177;-74
2022/11/04 04:02:51;;;;;;;4.37;2.80;;;;;;;;;;5049750;28;20185;-74
2022/11/04 04:05:36;;;;;;;4.23;2.67;;;;;;;;;;5046132;28;20687;-74
2022/11/04 04:08:20;;;;;;;3.43;2.63;;;;;;;;;;5039193;28;20178;-73
2022/11/04 04:11:04;;;;;;;4.10;3.70;;;;;;;;;;5043091;28;20190;-73
2022/11/04 04:13:36;;;;;;;6.23;4.53;;;;;;;;;;5048757;28;20182;-72
2022/11/04 04:16:09;;;;;;;6.70;4.90;;;;;;;;;;5045660;28;20228;-73
2022/11/04 04:18:39;;;;;;;6.10;4.77;;;;;;;;;;5047142;28;20185;-73
2022/11/04 04:21:06;;;;;;;7.97;5.40;;;;;;;;;;5041781;28;20647;-74
2022/11/04 04:29:02;;;;;;;11.93;7.13;;;;;;;;;;5046070;28;20701;-74
2022/11/04 04:34:12;;;;;;;18.60;10.43;;;;;;;;;;5048560;28;20604;-74
2022/11/04 04:36:41;;;;;;;14.77;8.77;;;;;;;;;;5049771;28;20182;-73
2022/11/04 04:44:58;;;;;;;17.17;10.50;;;;;;;;;;5043282;28;20255;-73
2022/11/04 04:47:24;;;;;;;15.33;9.60;;;;;;;;;;5050627;28;20291;-73
2022/11/04 04:49:57;;;;;;;17.17;10.07;;;;;;;;;;5045117;28;20257;-73
2022/11/04 04:52:23;;;;;;;18.57;10.90;;;;;;;;;;5046835;28;20196;-73
2022/11/04 04:54:48;;;;;;;13.83;9.47;;;;;;;;;;5046053;28;20187;-73
2022/11/04 04:57:13;;;;;;;15.47;9.13;;;;;;;;;;5044667;28;20190;-72
2022/11/04 04:59:38;;;;;;;19.83;11.20;;;;;;;;;;5035856;28;20177;-73
2022/11/04 05:02:04;;;;;;;16.67;9.97;;;;;;;;;;5045600;28;20189;-73
2022/11/04 05:04:29;;;;;;;22.37;10.13;;;;;;;;;;5056383;28;20197;-73
2022/11/04 05:06:54;;;;;;;19.00;10.30;;;;;;;;;;5042324;28;20170;-74
2022/11/04 05:09:19;;;;;;;23.13;11.70;;;;;;;;;;5057056;28;20526;-73
2022/11/04 05:11:45;;;;;;;17.93;9.70;;;;;;;;;;5050405;28;20222;-73
2022/11/04 05:14:10;;;;;;;16.10;9.70;;;;;;;;;;5045080;28;20209;-73
2022/11/04 05:16:35;;;;;;;19.20;10.40;;;;;;;;;;5051207;28;20188;-73
2022/11/04 05:19:00;;;;;;;21.17;10.83;;;;;;;;;;5054762;28;20545;-73
2022/11/04 05:21:25;;;;;;;19.93;10.97;;;;;;;;;;5050847;28;20423;-73
2022/11/04 05:23:51;;;;;;;18.17;10.03;;;;;;;;;;5056931;28;20162;-73
2022/11/04 05:26:16;;;;;;;22.77;12.33;;;;;;;;;;5052459;28;20219;-74
2022/11/04 05:28:41;;;;;;;18.43;10.50;;;;;;;;;;5052977;28;20231;-73
2022/11/04 05:31:06;;;;;;;20.80;11.40;;;;;;;;;;5041182;28;20267;-73
2022/11/04 05:33:32;;;;;;;17.90;10.50;;;;;;;;;;5051905;28;20178;-73
2022/11/04 05:36:06;;;;;;;18.40;11.93;;;;;;;;;;5048208;28;20178;-74
2022/11/04 05:38:31;;;;;;;18.07;10.10;;;;;;;;;;5054465;28;20585;-74
2022/11/04 05:40:57;;;;;;;19.70;10.73;;;;;;;;;;5050737;28;20197;-73
2022/11/04 05:43:22;;;;;;;19.10;10.63;;;;;;;;;;5055968;28;20200;-74
2022/11/04 05:45:47;;;;;;;19.80;11.90;;;;;;;;;;5056590;28;20197;-73
2022/11/04 05:48:12;;;;;;;16.07;9.53;;;;;;;;;;5057275;28;20265;-73
2022/11/04 05:50:40;;;;;;;18.83;10.33;;;;;;;;;;5056122;28;20190;-73
2022/11/04 05:53:05;;;;;;;18.30;9.70;;;;;;;;;;5059490;28;20174;-73
2022/11/04 05:55:30;;;;;;;18.40;10.13;;;;;;;;;;5054491;28;20192;-73
2022/11/04 05:57:56;;;;;;;16.43;9.23;;;;;;;;;;5049275;28;20184;-73
2022/11/04 06:00:22;;;;;;;17.33;10.27;;;;;;;;;;5060135;28;20186;-73
2022/11/04 06:02:47;;;;;;;16.83;9.60;;;;;;;;;;5049694;28;20252;-73
2022/11/04 06:05:12;;;;;;;15.53;10.23;;;;;;;;;;5060546;28;20409;-73
2022/11/04 06:07:37;;;;;;;21.13;10.47;;;;;;;;;;5049306;28;20174;-73
2022/11/04 06:10:03;;;;;;;17.33;9.40;;;;;;;;;;5043728;28;20247;-73
2022/11/04 06:12:28;;;;;;;14.10;9.10;;;;;;;;;;5039420;28;20757;-73
2022/11/04 06:14:53;;;;;;;20.20;9.80;;;;;;;;;;5046846;28;20647;-73
2022/11/04 06:17:20;;;;;;;18.57;10.37;;;;;;;;;;5050867;28;20190;-73
2022/11/04 06:19:45;;;;;;;22.47;10.77;;;;;;;;;;5051392;28;20181;-73
2022/11/04 06:22:12;;;;;;;23.73;12.50;;;;;;;;;;5043533;28;20201;-73
2022/11/04 06:24:37;;;;;;;25.37;12.47;;;;;;;;;;5048900;28;20233;-73
2022/11/04 06:27:02;;;;;;;22.93;12.43;;;;;;;;;;5047672;28;20208;-73
2022/11/04 06:29:28;;;;;;;29.03;13.17;;;;;;;;;;5046548;28;20181;-73
2022/11/04 06:31:53;;;;;;;23.30;12.83;;;;;;;;;;5046759;28;20210;-73
2022/11/04 06:34:18;;;;;;;25.60;13.80;;;;;;;;;;5048352;28;20185;-73
2022/11/04 06:36:43;;;;;;;20.93;12.83;;;;;;;;;;5055988;28;20189;-73
2022/11/04 06:39:08;;;;;;;22.20;12.93;;;;;;;;;;5045806;28;20190;-73
2022/11/04 06:41:34;;;;;;;21.77;12.97;;;;;;;;;;5040023;28;20220;-74
2022/11/04 06:43:59;;;;;;;25.40;13.97;;;;;;;;;;5047055;28;20177;-73
2022/11/04 06:46:27;;;;;;;24.67;13.20;;;;;;;;;;5048228;28;20209;-73
2022/11/04 06:48:54;;;;;;;26.03;13.83;;;;;;;;;;5051283;28;20193;-73
2022/11/04 06:51:19;;;;;;;21.10;12.23;;;;;;;;;;5054574;28;20205;-73
2022/11/04 06:53:44;;;;;;;20.40;12.27;;;;;;;;;;5059155;28;20196;-74
2022/11/04 06:56:09;;;;;;;23.03;13.67;;;;;;;;;;5055453;28;20567;-74
2022/11/04 06:58:34;;;;;;;20.10;12.50;;;;;;;;;;5051981;28;20189;-73
2022/11/04 07:01:00;;;;;;;22.97;11.83;;;;;;;;;;5049099;28;20494;-74
2022/11/04 07:03:26;;;;;;;17.77;11.17;;;;;;;;;;5054190;28;20192;-74
2022/11/04 07:05:51;;;;;;;22.67;12.40;;;;;;;;;;5059052;28;20208;-74
2022/11/04 07:08:17;;;;;;;17.77;11.10;;;;;;;;;;5046402;28;20228;-73
2022/11/04 07:10:42;;;;;;;18.37;10.90;;;;;;;;;;5045881;28;20260;-73
2022/11/04 07:13:08;;;;;;;19.90;10.63;;;;;;;;;;5047520;28;20179;-73
2022/11/04 07:15:33;;;;;;;18.80;10.17;;;;;;;;;;5058554;28;20177;-73
2022/11/04 07:17:58;;;;;;;18.93;9.63;;;;;;;;;;5042311;28;20539;-73
2022/11/04 07:20:23;;;;;;;14.90;8.67;;;;;;;;;;5052961;28;20181;-74
2022/11/04 07:22:49;;;;;;;17.73;8.73;;;;;;;;;;5044858;28;20602;-75
2022/11/04 07:25:14;;;;;;;16.30;9.47;;;;;;;;;;5049413;28;20197;-73
2022/11/04 07:27:39;;;;;;;17.77;10.00;;;;;;;;;;5048647;28;20182;-73
2022/11/04 07:30:05;;;;;;;16.10;8.00;;;;;;;;;;5045260;28;20169;-73
2022/11/04 07:32:31;;;;;;;16.47;8.57;;;;;;;;;;5045384;28;20205;-73
2022/11/04 07:34:56;;;;;;;29.43;11.43;;;;;;;;;;5053212;28;20608;-73
2022/11/04 07:37:21;;;;;;;16.37;8.83;;;;;;;;;;5043217;28;20185;-73
2022/11/04 07:39:46;;;;;;;14.60;8.50;;;;;;;;;;5049377;28;20177;-74
2022/11/04 07:42:12;;;;;;;18.97;9.20;;;;;;;;;;5046043;28;20197;-73
2022/11/04 07:44:37;;;;;;;14.60;8.37;;;;;;;;;;5053108;28;20766;-73
2022/11/04 07:47:02;;;;;;;15.40;9.47;;;;;;;;;;5048982;28;20173;-73
2022/11/04 07:49:27;;;;;;;15.20;7.83;;;;;;;;;;5049149;28;20185;-74
2022/11/04 07:51:52;;;;;;;11.40;7.77;;;;;;;;;;5052279;28;20202;-73
2022/11/04 07:54:18;;;;;;;17.50;9.13;;;;;;;;;;5052526;28;20216;-73
2022/11/04 07:56:43;;;;;;;16.10;8.67;;;;;;;;;;5050389;28;20174;-73
2022/11/04 07:59:08;;;;;;;12.43;8.20;;;;;;;;;;5049292;28;20520;-73
2022/11/04 08:01:33;;;;;;;18.30;8.93;;;;;;;;;;5047710;28;20205;-73
2022/11/04 08:03:59;;;;;;;18.27;9.10;;;;;;;;;;5058311;28;20174;-73
2022/11/04 08:06:24;;;;;;;14.83;9.10;;;;;;;;;;5045185;28;20217;-73
2022/11/04 08:08:52;;;;;;;15.80;8.33;;;;;;;;;;5062272;28;20175;-73
2022/11/04 08:11:18;;;;;;;15.93;8.43;;;;;;;;;;5049512;28;20579;-73
2022/11/04 08:13:44;;;;;;;12.43;8.17;;;;;;;;;;5047583;28;20175;-73
2022/11/04 08:16:12;;;;;;;13.80;7.90;;;;;;;;;;5049779;28;20178;-73
2022/11/04 08:18:38;;;;;;;16.17;8.43;;;;;;;;;;5050196;28;20564;-73
2022/11/04 08:21:03;;;;;;;12.53;7.13;;;;;;;;;;5050540;28;20204;-73
2022/11/04 08:23:29;;;;;;;14.20;7.80;;;;;;;;;;5045999;28;20186;-73
2022/11/04 08:25:54;;;;;;;11.40;7.23;;;;;;;;;;5047938;28;20206;-73
2022/11/04 08:28:20;;;;;;;13.27;7.60;;;;;;;;;;5049684;28;20186;-73
2022/11/04 08:30:50;;;;;;;12.70;7.40;;;;;;;;;;5051075;28;20216;-74
2022/11/04 08:33:16;;;;;;;13.90;8.00;;;;;;;;;;5062159;28;20177;-73
2022/11/04 08:35:41;;;;;;;14.17;7.97;;;;;;;;;;5049994;28;20181;-72
2022/11/04 08:38:06;;;;;;;15.30;7.47;;;;;;;;;;5048850;28;20184;-73
2022/11/04 08:40:32;;;;;;;15.17;7.17;;;;;;;;;;5044910;28;20178;-73
2022/11/04 08:42:57;;;;;;;15.30;7.30;;;;;;;;;;5042694;28;20182;-73
2022/11/04 08:45:22;;;;;;;13.77;7.20;;;;;;;;;;5046759;28;20205;-73
2022/11/04 08:47:47;;;;;;;11.97;6.70;;;;;;;;;;5051675;28;20186;-73
2022/11/04 08:50:13;;;;;;;14.10;6.90;;;;;;;;;;5044247;28;20265;-73
2022/11/04 08:52:38;;;;;;;11.43;6.43;;;;;;;;;;5053220;28;20246;-73
2022/11/04 08:55:04;;;;;;;11.60;5.95;;;;;;;;;;5058470;28;20172;-73
2022/11/04 08:57:30;;;;;;;8.83;6.10;;;;;;;;;;5050643;28;20225;-73
2022/11/04 08:59:55;;;;;;;14.48;5.82;;;;;;;;;;5051659;28;20181;-73
2022/11/04 09:02:20;;;;;;;7.80;5.00;;;;;;;;;;5054995;28;20208;-73
2022/11/04 09:04:46;;;;;;;9.60;5.90;;;;;;;;;;5056773;28;20695;-73
2022/11/04 09:07:11;;;;;;;9.38;5.53;;;;;;;;;;5056019;28;20247;-73
2022/11/04 09:09:38;;;;;;;7.05;4.65;;;;;;;;;;5057710;28;20182;-73
2022/11/04 09:12:03;;;;;;;10.13;4.65;;;;;;;;;;5050062;28;20205;-73
2022/11/04 09:14:28;;;;;;;9.45;4.63;;;;;;;;;;5056360;28;20674;-73
2022/11/04 09:16:54;;;;;;;10.95;5.70;;;;;;;;;;5054263;28;20170;-75
2022/11/04 09:19:19;;;;;;;12.63;5.78;;;;;;;;;;5051658;28;20189;-71
2022/11/04 09:21:45;;;;;;;8.68;4.93;;;;;;;;;;5044129;28;20202;-74
2022/11/04 09:24:11;;;;;;;9.82;5.80;;;;;;;;;;5047674;28;20197;-73
2022/11/04 09:26:36;;;;;;;8.73;5.85;;;;;;;;;;5053334;28;20185;-73
2022/11/04 09:29:01;;;;;;;11.38;5.88;;;;;;;;;;5051239;28;20174;-72
2022/11/04 09:31:28;;;;;;;8.23;5.97;;;;;;;;;;5065565;22;20583;-69
2022/11/04 09:33:54;;;;;;;9.07;4.32;;;;;;;;;;5042447;28;20185;-68
2022/11/04 09:36:19;;;;;;;8.48;5.25;;;;;;;;;;5049797;28;20220;-69
2022/11/04 09:38:44;;;;;;;9.85;5.25;;;;;;;;;;5031597;28;20186;-69
2022/11/04 09:41:18;;;;;;;6.50;4.55;;;;;;;;;;5046582;28;20672;-69
2022/11/04 09:43:52;;;;;;;8.57;4.60;;;;;;;;;;5040088;28;20478;-69
2022/11/04 09:46:18;;;;;;;8.95;5.35;;;;;;;;;;5044414;28;20240;-69
2022/11/04 09:48:46;;;;;;;11.43;4.95;;;;;;;;;;5051816;28;20205;-69
2022/11/04 09:51:12;;;;;;;7.97;5.38;;;;;;;;;;5046173;28;20721;-69
2022/11/04 09:53:38;;;;;;;9.73;5.50;;;;;;;;;;5046237;28;20273;-69
2022/11/04 09:56:09;;;;;;;6.38;4.57;;;;;;;;;;5028187;28;20200;-69
2022/11/04 09:58:36;;;;;;;8.75;5.63;;;;;;;;;;5030017;28;20174;-69
2022/11/04 10:01:16;;;;;;;9.65;5.78;;;;;;;;;;5047496;28;20572;-69
2022/11/04 10:04:00;;;;;;;7.60;5.60;;;;;;;;;;5042868;28;20177;-69
2022/11/04 10:06:30;;;;;;;8.07;4.32;;;;;;;;;;5044887;28;20227;-69
2022/11/04 10:09:16;;;;;;;16.65;7.18;;;;;;;;;;5047259;28;20205;-69
2022/11/04 10:11:57;;;;;;;13.23;7.78;;;;;;;;;;5041231;28;20209;-69
2022/11/04 10:14:25;;;;;;;11.23;5.93;;;;;;;;;;5046792;28;20546;-69
2022/11/04 10:16:53;;;;;;;8.80;5.32;;;;;;;;;;5041979;28;20251;-69
2022/11/04 10:19:21;;;;;;;8.13;5.10;;;;;;;;;;5043003;28;20173;-69
2022/11/04 10:22:03;;;;;;;7.47;5.22;;;;;;;;;;5042576;28;20309;-69
2022/11/04 10:24:45;;;;;;;10.55;5.20;;;;;;;;;;5043919;28;20338;-69
2022/11/04 10:27:22;;;;;;;10.75;6.30;;;;;;;;;;5045795;28;20264;-69
2022/11/04 10:29:50;;;;;;;7.57;5.38;;;;;;;;;;5043067;28;20257;-69
2022/11/04 10:32:16;;;;;;;11.30;5.78;;;;;;;;;;5044691;28;20229;-69
2022/11/04 10:34:59;;;;;;;7.60;5.10;;;;;;;;;;5040955;28;20181;-70
2022/11/04 10:37:25;;;;;;;9.13;5.30;;;;;;;;;;5043011;28;20422;-69
2022/11/04 10:39:51;;;;;;;7.88;5.03;;;;;;;;;;5047284;28;20200;-69
2022/11/04 10:42:18;;;;;;;12.07;5.55;;;;;;;;;;5022201;28;20213;-69
2022/11/04 10:44:44;;;;;;;9.75;5.50;;;;;;;;;;5046203;28;20193;-69
2022/11/04 10:47:19;;;;;;;6.88;4.93;;;;;;;;;;5032413;28;20194;-70
2022/11/04 10:49:53;;;;;;;8.15;5.03;;;;;;;;;;5042140;28;20180;-69
2022/11/04 10:52:18;;;;;;;7.95;5.60;;;;;;;;;;5036867;28;20251;-69
2022/11/04 10:54:47;;;;;;;7.07;4.82;;;;;;;;;;5043506;28;20170;-70
2022/11/04 10:57:18;;;;;;;8.40;5.18;;;;;;;;;;5050353;28;20238;-69
2022/11/04 10:59:44;;;;;;;7.07;4.40;;;;;;;;;;5028901;28;20264;-70
2022/11/04 11:02:09;;;;;;;7.37;5.37;;;;;;;;;;5035245;28;20284;-69
2022/11/04 11:04:36;;;;;;;8.45;4.85;;;;;;;;;;5041441;28;20462;-69
2022/11/04 11:07:03;;;;;;;8.68;4.45;;;;;;;;;;5040280;28;20189;-69
2022/11/04 11:09:29;;;;;;;8.23;4.72;;;;;;;;;;5029247;28;20705;-69
2022/11/04 11:11:57;;;;;;;8.85;4.90;;;;;;;;;;5050995;28;20198;-70
2022/11/04 11:14:28;;;;;;;8.23;5.13;;;;;;;;;;5038961;28;20170;-69
2022/11/04 11:16:54;;;;;;;8.02;4.63;;;;;;;;;;5042961;28;20248;-69
2022/11/04 11:19:20;;;;;;;6.53;4.95;;;;;;;;;;5038936;28;20253;-69
2022/11/04 11:21:47;;;;;;;8.27;4.63;;;;;;;;;;5036195;28;20202;-70
2022/11/04 11:24:15;;;;;;;10.07;5.18;;;;;;;;;;5033277;28;20178;-70
2022/11/04 11:26:47;;;;;;;6.97;4.35;;;;;;;;;;5041078;28;20181;-69
2022/11/04 11:29:12;;;;;;;7.90;4.47;;;;;;;;;;5045691;28;20184;-69
2022/11/04 11:31:39;;;;;;;9.80;3.90;;;;;;;;;;5040959;28;20332;-69
2022/11/04 11:34:06;;;;;;;5.32;4.13;;;;;;;;;;5040136;28;20647;-69
2022/11/04 11:36:32;;;;;;;9.15;3.42;;;;;;;;;;5037470;28;20202;-70
2022/11/04 11:39:15;;;;;;;6.30;3.03;;;;;;;;;;5044806;28;20670;-69
2022/11/04 11:41:49;;;;;;;6.22;3.22;;;;;;;;;;5036331;28;20312;-69
2022/11/04 11:44:24;;;;;;;5.03;3.50;;;;;;;;;;5041603;28;20212;-69
2022/11/04 11:46:53;;;;;;;6.38;4.03;;;;;;;;;;5041427;28;20312;-69
2022/11/04 11:49:23;;;;;;;9.43;4.65;;;;;;;;;;5039466;28;20171;-69
2022/11/04 11:51:49;;;;;;;8.30;4.47;;;;;;;;;;5048073;28;20197;-70
2022/11/04 11:54:28;;;;;;;7.88;4.28;;;;;;;;;;5049037;28;20185;-69
2022/11/04 11:56:54;;;;;;;6.20;4.05;;;;;;;;;;5048712;28;20177;-69
2022/11/04 11:59:19;;;;;;;7.07;4.43;;;;;;;;;;5044105;28;20183;-69
2022/11/04 12:01:49;;;;;;;6.50;3.60;;;;;;;;;;5048548;28;20204;-69
2022/11/04 12:04:15;;;;;;;7.10;4.18;;;;;;;;;;5032051;28;20177;-69
2022/11/04 12:06:47;;;;;;;9.80;4.70;;;;;;;;;;5050557;28;20193;-69
2022/11/04 12:09:24;;;;;;;11.27;4.50;;;;;;;;;;5053242;28;20177;-70
2022/11/04 12:11:53;;;;;;;9.07;4.50;;;;;;;;;;5046888;28;20194;-69
2022/11/04 12:14:30;;;;;;;6.70;4.97;;;;;;;;;;5034197;28;20228;-69
2022/11/04 12:17:10;;;;;;;6.78;3.95;;;;;;;;;;5044121;28;20173;-69
2022/11/04 12:19:42;;;;;;;6.88;4.68;;;;;;;;;;5044763;28;20177;-68
2022/11/04 12:22:07;;;;;;;7.78;4.78;;;;;;;;;;5050432;28;20775;-70
2022/11/04 12:25:01;;;;;;;7.47;5.43;;;;;;;;;;5050925;28;20217;-70
2022/11/04 12:27:32;;;;;;;7.03;4.97;;;;;;;;;;5052310;28;20199;-69
2022/11/04 12:30:11;;;;;;;6.57;4.68;;;;;;;;;;5049494;28;20173;-69
2022/11/04 12:32:48;;;;;;;8.82;4.07;;;;;;;;;;5043328;28;20268;-69
2022/11/04 12:35:28;;;;;;;5.03;2.65;;;;;;;;;;5044555;28;20946;-70
2022/11/04 12:38:07;;;;;;;3.17;1.50;;;;;;;;;;5043410;28;20206;-68
2022/11/04 12:40:35;;;;;;;3.92;1.75;;;;;;;;;;5050246;28;20273;-70
2022/11/04 12:43:03;;;;;;;2.30;0.93;;;;;;;;;;5047829;28;20205;-69
2022/11/04 12:45:48;;;;;;;1.23;0.60;;;;;;;;;;5048267;28;20694;-68
2022/11/04 12:48:28;;;;;;;1.10;0.60;;;;;;;;;;4985815;28;20204;-69
2022/11/04 12:50:56;;;;;;;2.00;0.75;;;;;;;;;;5046064;28;20165;-69
2022/11/04 12:53:53;;;;;;;0.95;0.60;;;;;;;;;;5048130;28;20192;-68
2022/11/04 12:56:25;;;;;;;2.63;0.40;;;;;;;;;;4989043;28;20182;-69
2022/11/04 12:58:59;;;;;;;0.35;0.30;;;;;;;;;;5046881;28;20175;-68
2022/11/04 13:01:37;;;;;;;0.75;0.40;;;;;;;;;;5043018;28;20451;-69
2022/11/04 13:04:09;;;;;;;1.23;0.63;;;;;;;;;;5044040;28;20256;-68
2022/11/04 13:06:40;;;;;;;1.05;0.52;;;;;;;;;;5044257;28;20275;-69
2022/11/04 13:09:12;;;;;;;1.10;0.60;;;;;;;;;;5048807;28;20176;-69
2022/11/04 13:11:53;;;;;;;2.08;0.40;;;;;;;;;;5045761;28;20618;-69
2022/11/04 13:14:29;;;;;;;1.10;0.40;;;;;;;;;;5047123;28;20188;-69
2022/11/04 13:16:56;;;;;;;1.00;0.70;;;;;;;;;;5046218;28;20177;-69
2022/11/04 13:19:44;;;;;;;1.25;0.50;;;;;;;;;;5047542;28;20235;-69
2022/11/04 13:22:11;;;;;;;2.78;0.50;;;;;;;;;;5035642;28;20190;-69
2022/11/04 13:24:39;;;;;;;1.63;0.30;;;;;;;;;;5044454;28;20307;-69
2022/11/04 13:27:18;;;;;;;4.15;0.85;;;;;;;;;;5032265;28;20190;-69
2022/11/04 13:29:44;;;;;;;1.13;0.50;;;;;;;;;;5040880;28;20166;-69
2022/11/04 13:32:19;;;;;;;2.28;0.40;;;;;;;;;;5049563;28;20721;-69
2022/11/04 13:35:07;;;;;;;1.60;0.50;;;;;;;;;;5025134;28;20182;-69
2022/11/04 13:37:35;;;;;;;1.30;0.40;;;;;;;;;;5045062;28;20539;-69
2022/11/04 13:40:13;;;;;;;1.52;0.40;;;;;;;;;;5047901;28;20170;-69
2022/11/04 13:43:36;;;;;;;0.68;0.30;;;;;;;;;;5047036;28;20396;-69
2022/11/04 13:45:47;;;;;;;2.75;0.60;;;;;;;;;;5052620;28;20213;-69
2022/11/04 13:48:16;;;;;;;0.60;0.35;;;;;;;;;;5046628;28;20179;-69
2022/11/04 13:50:41;;;;;;;1.67;1.05;;;;;;;;;;5047844;28;20175;-69
2022/11/04 13:53:08;;;;;;;1.70;0.70;;;;;;;;;;5030109;28;20261;-69
2022/11/04 13:55:34;;;;;;;1.35;0.70;;;;;;;;;;5046697;28;20189;-69
2022/11/04 13:58:02;;;;;;;1.58;0.80;;;;;;;;;;5050196;28;20235;-69
2022/11/04 14:00:31;;;;;;;1.63;0.70;;;;;;;;;;5048844;28;20186;-70
2022/11/04 14:02:59;;;;;;;2.35;0.50;;;;;;;;;;5045506;28;20205;-69
2022/11/04 14:05:31;;;;;;;0.93;0.30;;;;;;;;;;5048042;28;20213;-69
2022/11/04 14:08:02;;;;;;;1.80;0.40;;;;;;;;;;5045900;28;20182;-69
2022/11/04 14:10:46;;;;;;;2.13;0.45;;;;;;;;;;5050049;28;20187;-69
2022/11/04 14:13:33;;;;;;;1.75;0.52;;;;;;;;;;5051256;28;20230;-71
2022/11/04 14:15:58;;;;;;;0.82;0.45;;;;;;;;;;5033798;28;20202;-69
2022/11/04 14:18:31;;;;;;;1.05;0.40;;;;;;;;;;5052609;28;20568;-69
2022/11/04 14:21:05;;;;;;;0.98;0.50;;;;;;;;;;5045156;28;20185;-69
2022/11/04 14:23:31;;;;;;;1.63;0.50;;;;;;;;;;5040628;28;20276;-69
2022/11/04 14:26:07;;;;;;;0.95;0.47;;;;;;;;;;5039078;28;20684;-69
2022/11/04 14:28:33;;;;;;;0.98;0.52;;;;;;;;;;5045514;28;20227;-70
2022/11/04 14:30:59;;;;;;;1.70;0.52;;;;;;;;;;5036415;28;20235;-69
2022/11/04 14:33:31;;;;;;;4.10;0.77;;;;;;;;;;5035187;28;20181;-69
2022/11/04 14:36:12;;;;;;;1.48;0.50;;;;;;;;;;5045095;28;20534;-69
2022/11/04 14:38:37;;;;;;;2.33;0.52;;;;;;;;;;5042354;28;20268;-69
2022/11/04 14:41:28;;;;;;;3.00;0.95;;;;;;;;;;5044180;28;20269;-69
2022/11/04 14:43:54;;;;;;;1.52;0.80;;;;;;;;;;5027096;28;20242;-69
2022/11/04 14:46:21;;;;;;;2.28;0.60;;;;;;;;;;5045435;28;20205;-69
2022/11/04 14:48:51;;;;;;;1.75;0.77;;;;;;;;;;5046808;28;20180;-69
2022/11/04 14:51:38;;;;;;;1.77;0.80;;;;;;;;;;5041358;28;20205;-70
2022/11/04 14:54:05;;;;;;;0.93;0.60;;;;;;;;;;5048350;28;20177;-70
2022/11/04 14:56:30;;;;;;;1.35;0.68;;;;;;;;;;5046937;28;20742;-70
2022/11/04 14:58:56;;;;;;;0.98;0.45;;;;;;;;;;5051197;28;20186;-70
2022/11/04 15:01:21;;;;;;;1.67;0.68;;;;;;;;;;5048382;28;20254;-70
2022/11/04 15:03:47;;;;;;;1.77;0.95;;;;;;;;;;5040929;28;20178;-70
2022/11/04 15:06:21;;;;;;;3.15;0.85;;;;;;;;;;5038354;28;20198;-70
2022/11/04 15:08:46;;;;;;;1.20;0.63;;;;;;;;;;5042247;28;20184;-70
2022/11/04 15:11:16;;;;;;;2.15;0.63;;;;;;;;;;5036939;28;20357;-70
2022/11/04 15:13:45;;;;;;;2.65;0.70;;;;;;;;;;5028038;28;20244;-69
2022/11/04 15:16:14;;;;;;;1.20;0.88;;;;;;;;;;5043724;28;20178;-69
2022/11/04 15:18:40;;;;;;;4.90;0.98;;;;;;;;;;5047140;28;20185;-69